Time;durP1;ratioP1;P1;durP2;ratioP2;P2;SDS_P1;SDS_P2;PMS_P1;PMS_P2;Temp;Humidity;BMP_temperature;BMP_pressure;BME280_temperature;BME280_humidity;BME280_pressure;Samples;Min_cycle;Max_cycle;Signal;HPM_P1;HPM_P2
2023/08/18 00:00:53;;;;;;;42.17;37.60;;;;;;;;;;5090867;28;20088;-63
2023/08/18 00:03:18;;;;;;;41.47;36.92;;;;;;;;;;5083805;28;20355;-64
2023/08/18 00:05:44;;;;;;;44.80;40.20;;;;;;;;;;5088492;28;20032;-63
2023/08/18 00:08:09;;;;;;;44.05;39.47;;;;;;;;;;5059569;28;20077;-63
2023/08/18 00:10:34;;;;;;;47.83;41.90;;;;;;;;;;5038865;28;20027;-63
2023/08/18 00:12:59;;;;;;;43.38;38.92;;;;;;;;;;5033027;28;20063;-63
2023/08/18 00:15:25;;;;;;;46.40;41.63;;;;;;;;;;5043792;28;20880;-63
2023/08/18 00:17:50;;;;;;;47.67;42.72;;;;;;;;;;5043022;28;20024;-63
2023/08/18 00:20:15;;;;;;;48.55;43.45;;;;;;;;;;5040050;28;20052;-63
2023/08/18 00:22:41;;;;;;;50.13;44.42;;;;;;;;;;5036982;28;20034;-63
2023/08/18 00:25:06;;;;;;;47.90;42.80;;;;;;;;;;5049098;28;20032;-63
2023/08/18 00:27:31;;;;;;;48.55;41.20;;;;;;;;;;5042125;28;20027;-63
2023/08/18 00:29:57;;;;;;;54.28;48.47;;;;;;;;;;5038600;28;20863;-64
2023/08/18 00:32:22;;;;;;;51.10;45.58;;;;;;;;;;5046638;28;20788;-63
2023/08/18 00:34:47;;;;;;;49.38;43.80;;;;;;;;;;5064664;28;20056;-63
2023/08/18 00:37:14;;;;;;;47.75;41.95;;;;;;;;;;5086832;28;20033;-63
2023/08/18 00:39:39;;;;;;;53.22;47.22;;;;;;;;;;5079783;28;20064;-63
2023/08/18 00:42:04;;;;;;;54.07;45.43;;;;;;;;;;5085423;28;20521;-63
2023/08/18 00:44:30;;;;;;;51.35;45.85;;;;;;;;;;5078715;28;20311;-63
2023/08/18 00:46:55;;;;;;;53.73;47.93;;;;;;;;;;5083439;28;20533;-63
2023/08/18 00:49:21;;;;;;;52.42;46.70;;;;;;;;;;5079870;28;20663;-63
2023/08/18 00:51:46;;;;;;;55.30;49.33;;;;;;;;;;5076906;28;20368;-63
2023/08/18 00:54:12;;;;;;;53.28;47.65;;;;;;;;;;5087850;28;20024;-63
2023/08/18 00:56:38;;;;;;;61.05;52.05;;;;;;;;;;5076051;28;20047;-64
2023/08/18 00:59:05;;;;;;;58.42;52.00;;;;;;;;;;5081708;28;20415;-64
2023/08/18 01:01:30;;;;;;;61.42;54.80;;;;;;;;;;5074713;28;20467;-64
2023/08/18 01:03:55;;;;;;;62.15;52.85;;;;;;;;;;5073604;28;20078;-64
2023/08/18 01:06:21;;;;;;;71.85;54.42;;;;;;;;;;5080339;28;20466;-64
2023/08/18 01:08:46;;;;;;;72.70;57.40;;;;;;;;;;5092897;28;20031;-64
2023/08/18 01:11:25;;;;;;;74.32;58.03;;;;;;;;;;5072768;28;20302;-64
2023/08/18 01:13:53;;;;;;;68.32;54.85;;;;;;;;;;5088886;28;20056;-64
2023/08/18 01:16:22;;;;;;;76.38;56.67;;;;;;;;;;5092558;28;20378;-64
2023/08/18 01:18:48;;;;;;;72.95;57.05;;;;;;;;;;5092126;28;20099;-64
2023/08/18 01:21:13;;;;;;;77.57;58.00;;;;;;;;;;5091880;28;20387;-64
2023/08/18 01:23:39;;;;;;;80.00;56.53;;;;;;;;;;5091091;28;20028;-64
2023/08/18 01:26:04;;;;;;;71.97;55.13;;;;;;;;;;5091919;28;20028;-64
2023/08/18 01:28:30;;;;;;;69.85;56.83;;;;;;;;;;5091607;28;20382;-64
2023/08/18 01:30:56;;;;;;;72.97;54.10;;;;;;;;;;5091476;28;20352;-64
2023/08/18 01:33:22;;;;;;;84.28;56.80;;;;;;;;;;5086121;28;20031;-64
2023/08/18 01:35:48;;;;;;;75.73;57.17;;;;;;;;;;5085766;28;20016;-64
2023/08/18 01:38:14;;;;;;;72.30;54.47;;;;;;;;;;5080575;28;20318;-64
2023/08/18 01:40:40;;;;;;;70.60;56.35;;;;;;;;;;5074863;28;20074;-64
2023/08/18 01:43:06;;;;;;;77.15;54.88;;;;;;;;;;5080636;28;20470;-64
2023/08/18 01:45:32;;;;;;;78.78;57.03;;;;;;;;;;5072839;28;20036;-64
2023/08/18 01:47:57;;;;;;;74.22;55.50;;;;;;;;;;5058333;28;20028;-64
2023/08/18 01:50:22;;;;;;;74.97;53.57;;;;;;;;;;5029930;28;20020;-64
2023/08/18 01:52:48;;;;;;;75.90;54.22;;;;;;;;;;5036232;28;21107;-64
2023/08/18 01:55:13;;;;;;;69.82;52.83;;;;;;;;;;5043727;28;20016;-63
2023/08/18 01:57:38;;;;;;;72.78;55.10;;;;;;;;;;5050752;28;20098;-64
2023/08/18 02:00:04;;;;;;;81.10;57.37;;;;;;;;;;5080630;28;20115;-63
2023/08/18 02:02:29;;;;;;;78.30;58.28;;;;;;;;;;5087200;28;20278;-64
2023/08/18 02:04:55;;;;;;;76.10;55.57;;;;;;;;;;5078741;28;20040;-64
2023/08/18 02:07:20;;;;;;;83.57;56.90;;;;;;;;;;5062875;28;21178;-64
2023/08/18 02:09:45;;;;;;;81.95;57.80;;;;;;;;;;5030426;28;20077;-64
2023/08/18 02:12:11;;;;;;;74.90;53.33;;;;;;;;;;5028385;28;20953;-64
2023/08/18 02:14:36;;;;;;;77.53;56.03;;;;;;;;;;5037889;28;21145;-64
2023/08/18 02:17:01;;;;;;;76.87;55.80;;;;;;;;;;5043094;28;20340;-64
2023/08/18 02:19:26;;;;;;;79.53;54.95;;;;;;;;;;5043849;28;20317;-64
2023/08/18 02:21:51;;;;;;;80.32;56.72;;;;;;;;;;5029134;28;20896;-65
2023/08/18 02:24:17;;;;;;;75.80;54.50;;;;;;;;;;5043381;28;20024;-65
2023/08/18 02:26:42;;;;;;;76.27;53.53;;;;;;;;;;5044819;28;21013;-65
2023/08/18 02:29:07;;;;;;;70.72;55.17;;;;;;;;;;5032698;28;21033;-64
2023/08/18 02:31:33;;;;;;;81.88;58.50;;;;;;;;;;5030082;28;20946;-65
2023/08/18 02:33:58;;;;;;;78.95;55.95;;;;;;;;;;5039468;28;20029;-64
2023/08/18 02:36:23;;;;;;;86.60;58.50;;;;;;;;;;5028865;28;20056;-64
2023/08/18 02:38:49;;;;;;;81.93;57.17;;;;;;;;;;5061778;28;20641;-64
2023/08/18 02:41:14;;;;;;;71.65;53.80;;;;;;;;;;5077646;28;20040;-64
2023/08/18 02:43:40;;;;;;;69.60;56.65;;;;;;;;;;5074480;28;20115;-64
2023/08/18 02:46:05;;;;;;;73.25;57.05;;;;;;;;;;5072871;28;20032;-64
2023/08/18 02:48:30;;;;;;;70.70;52.37;;;;;;;;;;5072712;28;20356;-64
2023/08/18 02:51:05;;;;;;;75.10;56.78;;;;;;;;;;5072893;28;20302;-65
2023/08/18 02:53:31;;;;;;;76.68;55.78;;;;;;;;;;5072200;28;20028;-64
2023/08/18 02:55:56;;;;;;;87.90;58.30;;;;;;;;;;5072872;28;20101;-63
2023/08/18 02:58:22;;;;;;;73.72;53.97;;;;;;;;;;5072685;28;20154;-64
2023/08/18 03:00:47;;;;;;;85.90;57.17;;;;;;;;;;5072269;28;20016;-63
2023/08/18 03:03:12;;;;;;;74.30;58.03;;;;;;;;;;5072763;28;20081;-64
2023/08/18 03:05:37;;;;;;;82.40;60.97;;;;;;;;;;5075524;28;20027;-65
2023/08/18 03:08:03;;;;;;;89.43;62.03;;;;;;;;;;5091537;28;20362;-64
2023/08/18 03:10:28;;;;;;;78.45;60.90;;;;;;;;;;5075976;28;20698;-65
2023/08/18 03:12:53;;;;;;;79.75;59.97;;;;;;;;;;5073233;28;20032;-65
2023/08/18 03:15:19;;;;;;;86.50;59.90;;;;;;;;;;5078648;28;20019;-64
2023/08/18 03:17:44;;;;;;;85.87;60.17;;;;;;;;;;5081767;28;20307;-65
2023/08/18 03:20:09;;;;;;;85.20;62.10;;;;;;;;;;5072805;28;20278;-65
2023/08/18 03:22:35;;;;;;;88.72;64.90;;;;;;;;;;5080080;28;20146;-65
2023/08/18 03:25:01;;;;;;;86.90;65.68;;;;;;;;;;5074216;28;20073;-65
2023/08/18 03:27:26;;;;;;;84.03;62.95;;;;;;;;;;5079186;28;20442;-65
2023/08/18 03:29:51;;;;;;;85.10;64.63;;;;;;;;;;5072569;28;20073;-65
2023/08/18 03:32:16;;;;;;;92.70;67.80;;;;;;;;;;5077839;28;20271;-65
2023/08/18 03:34:42;;;;;;;84.30;64.23;;;;;;;;;;5072694;28;20104;-65
2023/08/18 03:37:07;;;;;;;90.37;67.13;;;;;;;;;;5077291;28;20278;-63
2023/08/18 03:39:32;;;;;;;90.30;68.35;;;;;;;;;;5072939;28;20784;-63
2023/08/18 03:41:57;;;;;;;99.88;70.93;;;;;;;;;;5083755;28;20031;-63
2023/08/18 03:44:23;;;;;;;91.70;68.70;;;;;;;;;;5071278;28;20102;-63
2023/08/18 03:46:48;;;;;;;100.93;72.23;;;;;;;;;;5089834;28;20286;-63
2023/08/18 03:49:13;;;;;;;96.30;68.20;;;;;;;;;;5077459;28;20296;-63
2023/08/18 03:51:38;;;;;;;107.20;73.47;;;;;;;;;;5077750;28;20274;-63
2023/08/18 03:54:04;;;;;;;107.03;75.13;;;;;;;;;;5089115;28;20034;-64
2023/08/18 03:56:29;;;;;;;100.57;73.93;;;;;;;;;;5067169;28;20072;-65
2023/08/18 03:58:54;;;;;;;105.22;73.50;;;;;;;;;;5045099;28;20035;-65
2023/08/18 04:01:19;;;;;;;103.85;76.35;;;;;;;;;;5091076;28;20068;-65
2023/08/18 04:03:45;;;;;;;112.75;76.43;;;;;;;;;;5092817;28;20123;-65
2023/08/18 04:06:12;;;;;;;106.25;75.95;;;;;;;;;;5089995;28;20031;-65
2023/08/18 04:08:42;;;;;;;115.40;78.80;;;;;;;;;;5091509;28;20020;-65
2023/08/18 04:11:08;;;;;;;123.78;80.25;;;;;;;;;;5085097;28;20016;-65
2023/08/18 04:13:34;;;;;;;119.68;82.72;;;;;;;;;;5081304;28;20031;-64
2023/08/18 04:15:59;;;;;;;116.53;81.50;;;;;;;;;;5090713;28;20515;-65
2023/08/18 04:18:24;;;;;;;120.18;81.05;;;;;;;;;;5091817;28;20106;-63
2023/08/18 04:20:50;;;;;;;117.35;82.45;;;;;;;;;;5076718;28;20070;-63
2023/08/18 04:23:15;;;;;;;122.53;84.50;;;;;;;;;;5082321;28;20028;-63
2023/08/18 04:25:43;;;;;;;122.97;83.63;;;;;;;;;;5080772;28;20308;-63
2023/08/18 04:28:08;;;;;;;125.95;84.60;;;;;;;;;;5082291;28;20279;-63
2023/08/18 04:30:34;;;;;;;126.78;84.80;;;;;;;;;;5079811;28;20028;-63
2023/08/18 04:32:59;;;;;;;116.67;83.13;;;;;;;;;;5090023;28;20070;-64
2023/08/18 04:35:24;;;;;;;128.75;81.93;;;;;;;;;;5071838;28;20271;-63
2023/08/18 04:37:50;;;;;;;116.77;80.43;;;;;;;;;;5073914;28;20048;-64
2023/08/18 04:40:15;;;;;;;117.68;81.63;;;;;;;;;;5084134;28;20269;-64
2023/08/18 04:42:40;;;;;;;110.68;79.72;;;;;;;;;;5091827;28;20020;-64
2023/08/18 04:45:06;;;;;;;109.63;74.80;;;;;;;;;;5076090;28;20051;-64
2023/08/18 04:47:31;;;;;;;110.85;72.78;;;;;;;;;;5072578;28;20278;-64
2023/08/18 04:49:56;;;;;;;110.75;68.22;;;;;;;;;;5075176;28;20035;-64
2023/08/18 04:52:22;;;;;;;105.50;73.13;;;;;;;;;;5085796;28;20376;-63
2023/08/18 04:54:48;;;;;;;105.68;70.20;;;;;;;;;;5074054;28;20289;-64
2023/08/18 04:57:13;;;;;;;123.43;76.65;;;;;;;;;;5077020;28;20111;-64
2023/08/18 04:59:38;;;;;;;120.37;76.70;;;;;;;;;;5080817;28;20058;-64
2023/08/18 05:02:04;;;;;;;116.60;73.45;;;;;;;;;;5089272;28;20278;-64
2023/08/18 05:04:29;;;;;;;122.80;75.63;;;;;;;;;;5079349;28;20032;-64
2023/08/18 05:06:54;;;;;;;117.40;76.57;;;;;;;;;;5078173;28;20051;-64
2023/08/18 05:09:20;;;;;;;115.20;75.90;;;;;;;;;;5078091;28;20384;-64
2023/08/18 05:11:45;;;;;;;128.48;80.47;;;;;;;;;;5081735;28;20376;-63
2023/08/18 05:14:10;;;;;;;130.27;79.47;;;;;;;;;;5089692;28;20493;-64
2023/08/18 05:16:35;;;;;;;144.67;82.13;;;;;;;;;;5082301;28;20351;-64
2023/08/18 05:19:01;;;;;;;121.18;81.85;;;;;;;;;;5076923;28;20294;-64
2023/08/18 05:21:26;;;;;;;131.85;82.18;;;;;;;;;;5091455;28;20024;-64
2023/08/18 05:23:51;;;;;;;136.57;86.68;;;;;;;;;;5081606;28;20031;-63
2023/08/18 05:26:17;;;;;;;143.17;87.47;;;;;;;;;;5083154;28;20036;-63
2023/08/18 05:28:43;;;;;;;133.43;87.80;;;;;;;;;;5086479;28;20289;-64
2023/08/18 05:31:09;;;;;;;153.27;91.40;;;;;;;;;;5078390;28;20020;-64
2023/08/18 05:33:34;;;;;;;138.15;89.45;;;;;;;;;;5086385;28;20386;-64
2023/08/18 05:36:00;;;;;;;144.37;88.80;;;;;;;;;;5091618;28;20016;-64
2023/08/18 05:38:25;;;;;;;134.18;89.78;;;;;;;;;;5087818;28;20285;-64
2023/08/18 05:40:50;;;;;;;131.52;84.47;;;;;;;;;;5088803;28;20036;-64
2023/08/18 05:43:16;;;;;;;134.38;85.78;;;;;;;;;;5084380;28;20012;-64
2023/08/18 05:45:42;;;;;;;130.90;83.60;;;;;;;;;;5072854;28;20047;-64
2023/08/18 05:48:07;;;;;;;130.00;81.72;;;;;;;;;;5072692;28;20020;-64
2023/08/18 05:50:33;;;;;;;135.82;86.22;;;;;;;;;;5073120;28;20500;-64
2023/08/18 05:52:58;;;;;;;134.85;87.25;;;;;;;;;;5073545;28;20074;-64
2023/08/18 05:55:24;;;;;;;129.60;84.57;;;;;;;;;;5073466;28;20020;-64
2023/08/18 05:57:50;;;;;;;129.32;82.53;;;;;;;;;;5085916;28;20031;-64
2023/08/18 06:00:15;;;;;;;134.18;83.53;;;;;;;;;;5073572;28;20074;-64
2023/08/18 06:02:41;;;;;;;135.35;84.03;;;;;;;;;;5085573;28;20409;-64
2023/08/18 06:05:07;;;;;;;135.38;83.75;;;;;;;;;;5057480;28;20882;-64
2023/08/18 06:07:32;;;;;;;145.20;87.00;;;;;;;;;;5034051;28;20032;-64
2023/08/18 06:09:57;;;;;;;133.93;84.93;;;;;;;;;;5042286;28;20924;-64
2023/08/18 06:12:23;;;;;;;130.13;84.32;;;;;;;;;;5032937;28;21058;-64
2023/08/18 06:14:48;;;;;;;145.47;86.50;;;;;;;;;;5041593;28;20298;-65
2023/08/18 06:17:13;;;;;;;137.30;82.43;;;;;;;;;;5033849;28;20361;-64
2023/08/18 06:19:38;;;;;;;140.13;81.87;;;;;;;;;;5035324;28;20386;-64
2023/08/18 06:22:04;;;;;;;129.47;80.23;;;;;;;;;;5040769;28;20393;-64
2023/08/18 06:24:29;;;;;;;139.65;80.95;;;;;;;;;;5039425;28;21215;-64
2023/08/18 06:26:54;;;;;;;131.65;85.68;;;;;;;;;;5041184;28;20040;-64
2023/08/18 06:29:20;;;;;;;120.10;78.70;;;;;;;;;;5043978;28;20139;-64
2023/08/18 06:31:45;;;;;;;126.22;80.93;;;;;;;;;;5041674;28;20404;-64
2023/08/18 06:34:10;;;;;;;116.50;80.63;;;;;;;;;;5044139;28;20036;-64
2023/08/18 06:36:35;;;;;;;119.63;78.17;;;;;;;;;;5037735;28;20024;-64
2023/08/18 06:39:01;;;;;;;120.65;79.75;;;;;;;;;;5042359;28;21262;-64
2023/08/18 06:41:26;;;;;;;128.63;80.50;;;;;;;;;;5027656;28;20166;-64
2023/08/18 06:43:51;;;;;;;125.50;81.90;;;;;;;;;;5030700;28;20841;-65
2023/08/18 06:46:17;;;;;;;132.32;82.88;;;;;;;;;;5040812;28;20109;-64
2023/08/18 06:48:42;;;;;;;129.68;83.10;;;;;;;;;;5031834;28;20032;-64
2023/08/18 06:51:08;;;;;;;134.40;83.63;;;;;;;;;;5083149;28;20067;-64
2023/08/18 06:53:33;;;;;;;125.13;83.37;;;;;;;;;;5089701;28;20266;-64
2023/08/18 06:55:58;;;;;;;130.50;83.00;;;;;;;;;;5090718;28;20327;-64
2023/08/18 06:58:23;;;;;;;136.65;80.82;;;;;;;;;;5089387;28;20394;-64
2023/08/18 07:00:49;;;;;;;119.20;74.53;;;;;;;;;;5090711;28;20491;-65
2023/08/18 07:03:14;;;;;;;115.67;76.37;;;;;;;;;;5086322;28;20028;-64
2023/08/18 07:05:39;;;;;;;124.70;76.40;;;;;;;;;;5064998;28;20291;-64
2023/08/18 07:08:04;;;;;;;119.97;76.53;;;;;;;;;;5039903;28;20286;-64
2023/08/18 07:10:29;;;;;;;126.18;78.55;;;;;;;;;;5078019;28;20674;-64
2023/08/18 07:12:55;;;;;;;127.30;76.93;;;;;;;;;;5075627;28;20013;-64
2023/08/18 07:15:20;;;;;;;117.43;76.95;;;;;;;;;;5085240;28;20806;-64
2023/08/18 07:17:45;;;;;;;129.33;77.00;;;;;;;;;;5086597;28;20027;-64
2023/08/18 07:20:12;;;;;;;124.10;77.40;;;;;;;;;;5082626;28;20274;-64
2023/08/18 07:22:37;;;;;;;119.55;73.18;;;;;;;;;;5044420;28;21137;-65
2023/08/18 07:25:04;;;;;;;114.13;75.73;;;;;;;;;;5054226;28;20032;-64
2023/08/18 07:27:29;;;;;;;115.80;75.75;;;;;;;;;;5071843;28;20768;-64
2023/08/18 07:29:54;;;;;;;116.00;73.63;;;;;;;;;;5070281;28;20021;-64
2023/08/18 07:32:20;;;;;;;108.03;73.00;;;;;;;;;;5070328;28;20660;-64
2023/08/18 07:34:45;;;;;;;114.80;75.23;;;;;;;;;;5075875;28;20316;-64
2023/08/18 07:37:11;;;;;;;112.70;73.03;;;;;;;;;;5078993;28;20274;-64
2023/08/18 07:39:36;;;;;;;111.20;72.78;;;;;;;;;;5084117;28;20032;-64
2023/08/18 07:42:01;;;;;;;111.97;71.50;;;;;;;;;;5070515;28;20070;-64
2023/08/18 07:44:26;;;;;;;114.90;73.93;;;;;;;;;;5075013;28;20793;-64
2023/08/18 07:46:52;;;;;;;106.87;74.00;;;;;;;;;;5090621;28;20020;-64
2023/08/18 07:49:17;;;;;;;110.53;74.63;;;;;;;;;;5077299;28;20320;-65
2023/08/18 07:51:43;;;;;;;109.13;72.17;;;;;;;;;;5090096;28;20034;-64
2023/08/18 07:54:08;;;;;;;117.53;70.70;;;;;;;;;;5090096;28;20323;-64
2023/08/18 07:56:33;;;;;;;103.50;71.00;;;;;;;;;;5081542;28;20020;-64
2023/08/18 07:58:59;;;;;;;105.77;72.00;;;;;;;;;;5072389;28;20031;-64
2023/08/18 08:01:24;;;;;;;106.90;71.28;;;;;;;;;;5071897;28;20305;-65
2023/08/18 08:03:49;;;;;;;103.20;70.95;;;;;;;;;;5072848;28;20055;-64
2023/08/18 08:06:15;;;;;;;117.60;76.43;;;;;;;;;;5072087;28;20433;-65
2023/08/18 08:08:40;;;;;;;113.03;75.30;;;;;;;;;;5073238;28;20052;-65
2023/08/18 08:11:05;;;;;;;106.30;72.73;;;;;;;;;;5071367;28;20028;-65
2023/08/18 08:13:30;;;;;;;114.55;73.40;;;;;;;;;;5077600;28;20740;-65
2023/08/18 08:15:56;;;;;;;112.63;72.05;;;;;;;;;;5078257;28;20024;-64
2023/08/18 08:18:21;;;;;;;109.77;73.07;;;;;;;;;;5079277;28;20029;-65
2023/08/18 08:20:46;;;;;;;125.45;73.35;;;;;;;;;;5072993;28;20329;-65
2023/08/18 08:23:11;;;;;;;115.40;72.80;;;;;;;;;;5084523;28;20063;-64
2023/08/18 08:25:37;;;;;;;105.55;69.63;;;;;;;;;;5089066;28;20636;-64
2023/08/18 08:28:03;;;;;;;111.05;69.55;;;;;;;;;;5089127;28;20099;-64
2023/08/18 08:30:28;;;;;;;97.70;67.28;;;;;;;;;;5088104;28;20386;-65
2023/08/18 08:32:53;;;;;;;105.80;67.53;;;;;;;;;;5086978;28;20074;-65
2023/08/18 08:35:19;;;;;;;104.80;67.47;;;;;;;;;;5089058;28;20012;-65
2023/08/18 08:37:44;;;;;;;100.95;66.15;;;;;;;;;;5088737;28;20040;-64
2023/08/18 08:40:15;;;;;;;103.53;67.40;;;;;;;;;;5071276;28;20995;-65
2023/08/18 08:42:41;;;;;;;102.93;67.93;;;;;;;;;;5038134;28;21240;-65
2023/08/18 08:45:06;;;;;;;97.18;66.20;;;;;;;;;;5029546;28;20031;-65
2023/08/18 08:47:32;;;;;;;104.78;70.25;;;;;;;;;;5037760;28;20131;-64
2023/08/18 08:49:59;;;;;;;98.00;67.82;;;;;;;;;;5049782;28;20381;-65
2023/08/18 08:52:26;;;;;;;89.32;65.30;;;;;;;;;;5077221;28;20400;-64
2023/08/18 08:54:53;;;;;;;102.90;68.15;;;;;;;;;;5073603;28;20150;-63
2023/08/18 08:57:20;;;;;;;94.53;65.72;;;;;;;;;;5074487;28;20421;-64
2023/08/18 08:59:45;;;;;;;90.22;63.78;;;;;;;;;;5073255;28;20020;-64
2023/08/18 09:02:11;;;;;;;94.88;65.97;;;;;;;;;;5073505;28;20081;-64
2023/08/18 09:04:36;;;;;;;98.18;67.53;;;;;;;;;;5081867;28;20028;-64
2023/08/18 09:07:02;;;;;;;93.10;66.78;;;;;;;;;;5091446;28;20418;-64
2023/08/18 09:09:27;;;;;;;99.13;69.37;;;;;;;;;;5084422;28;20032;-64
2023/08/18 09:11:57;;;;;;;88.00;65.23;;;;;;;;;;5078357;28;20278;-64
2023/08/18 09:14:22;;;;;;;83.30;61.63;;;;;;;;;;5091576;28;20354;-64
2023/08/18 09:16:47;;;;;;;82.00;60.85;;;;;;;;;;5082636;28;20479;-64
2023/08/18 09:19:15;;;;;;;79.88;59.85;;;;;;;;;;5077493;28;20013;-65
2023/08/18 09:21:40;;;;;;;78.45;58.35;;;;;;;;;;5080162;28;20055;-64
2023/08/18 09:24:06;;;;;;;65.13;52.87;;;;;;;;;;5077635;28;20067;-64
2023/08/18 09:26:31;;;;;;;64.43;51.35;;;;;;;;;;5079680;28;20300;-64
2023/08/18 09:28:57;;;;;;;57.60;50.80;;;;;;;;;;5085282;28;20031;-64
2023/08/18 09:31:22;;;;;;;57.87;48.97;;;;;;;;;;5090749;28;20286;-64
2023/08/18 09:33:47;;;;;;;55.00;47.77;;;;;;;;;;5078544;28;20313;-64
2023/08/18 09:36:13;;;;;;;57.53;49.13;;;;;;;;;;5088511;28;20383;-64
2023/08/18 09:38:40;;;;;;;60.03;48.95;;;;;;;;;;5078919;28;20020;-64
2023/08/18 09:41:05;;;;;;;57.92;49.08;;;;;;;;;;5082546;28;20024;-64
2023/08/18 09:43:30;;;;;;;62.97;51.55;;;;;;;;;;5085431;28;20031;-64
2023/08/18 09:45:57;;;;;;;59.65;49.30;;;;;;;;;;5081514;28;20078;-64
2023/08/18 09:48:26;;;;;;;53.80;47.95;;;;;;;;;;5081399;28;20027;-64
2023/08/18 09:50:53;;;;;;;55.20;48.05;;;;;;;;;;5081256;28;20031;-64
2023/08/18 09:53:21;;;;;;;50.72;45.35;;;;;;;;;;5075811;28;20151;-64
2023/08/18 09:55:47;;;;;;;56.65;50.25;;;;;;;;;;5086175;28;20085;-64
2023/08/18 09:58:15;;;;;;;52.80;47.00;;;;;;;;;;5075335;28;20024;-64
2023/08/18 10:00:42;;;;;;;54.03;47.35;;;;;;;;;;5075665;28;20115;-64
2023/08/18 10:03:09;;;;;;;52.33;46.80;;;;;;;;;;5077931;28;20024;-64
2023/08/18 10:05:36;;;;;;;53.05;47.33;;;;;;;;;;5043112;28;20109;-64
2023/08/18 10:08:02;;;;;;;49.03;43.83;;;;;;;;;;5051713;28;20028;-63
2023/08/18 10:10:28;;;;;;;54.78;49.22;;;;;;;;;;5080539;28;20028;-64
2023/08/18 10:12:53;;;;;;;52.60;47.00;;;;;;;;;;5081178;28;20472;-65
2023/08/18 10:15:19;;;;;;;61.28;49.03;;;;;;;;;;5084585;28;20498;-64
2023/08/18 10:17:44;;;;;;;54.80;49.00;;;;;;;;;;5076104;28;20026;-64
2023/08/18 10:20:13;;;;;;;54.13;48.55;;;;;;;;;;5076643;28;20021;-64
2023/08/18 10:22:40;;;;;;;53.83;48.60;;;;;;;;;;5081543;28;20450;-64
2023/08/18 10:25:05;;;;;;;55.63;49.92;;;;;;;;;;5077121;28;20058;-64
2023/08/18 10:27:32;;;;;;;52.90;47.50;;;;;;;;;;5081764;28;20067;-64
2023/08/18 10:30:07;;;;;;;56.60;50.78;;;;;;;;;;5082870;28;20048;-64
2023/08/18 10:32:32;;;;;;;55.35;49.42;;;;;;;;;;5081102;28;20028;-64
2023/08/18 10:35:16;;;;;;;50.00;44.83;;;;;;;;;;5077109;28;20021;-64
2023/08/18 10:37:44;;;;;;;42.85;38.40;;;;;;;;;;5075934;28;20024;-64
2023/08/18 10:40:20;;;;;;;41.53;37.15;;;;;;;;;;5077418;28;20108;-64
2023/08/18 10:42:46;;;;;;;38.10;34.00;;;;;;;;;;5075594;28;20024;-64
2023/08/18 10:45:24;;;;;;;40.33;36.20;;;;;;;;;;5070643;28;20024;-64
2023/08/18 10:47:50;;;;;;;38.17;34.30;;;;;;;;;;5070673;28;20274;-64
2023/08/18 10:50:15;;;;;;;37.80;33.97;;;;;;;;;;5071942;28;20020;-65
2023/08/18 10:52:41;;;;;;;39.20;35.08;;;;;;;;;;5076685;28;20084;-64
2023/08/18 10:55:07;;;;;;;41.85;37.65;;;;;;;;;;5079405;28;20096;-64
2023/08/18 10:57:33;;;;;;;39.78;35.97;;;;;;;;;;5088619;28;20443;-64
2023/08/18 10:59:59;;;;;;;39.35;35.33;;;;;;;;;;5089937;28;20016;-64
2023/08/18 11:02:24;;;;;;;38.10;34.28;;;;;;;;;;5087526;28;20105;-64
2023/08/18 11:04:50;;;;;;;37.58;33.75;;;;;;;;;;5089211;28;20036;-64
2023/08/18 11:07:18;;;;;;;38.35;34.38;;;;;;;;;;5087899;28;20449;-64
2023/08/18 11:09:43;;;;;;;39.83;35.72;;;;;;;;;;5081748;28;20028;-64
2023/08/18 11:12:08;;;;;;;38.05;34.45;;;;;;;;;;5083639;28;20016;-64
2023/08/18 11:14:34;;;;;;;36.25;32.40;;;;;;;;;;5090180;28;20131;-64
2023/08/18 11:16:59;;;;;;;36.60;32.73;;;;;;;;;;5089759;28;20020;-64
2023/08/18 11:19:24;;;;;;;34.08;30.65;;;;;;;;;;5088349;28;20803;-64
2023/08/18 11:21:49;;;;;;;34.08;30.77;;;;;;;;;;5091045;28;20028;-64
2023/08/18 11:24:16;;;;;;;33.83;30.52;;;;;;;;;;5071130;28;20021;-64
2023/08/18 11:26:43;;;;;;;36.45;32.60;;;;;;;;;;5076254;28;20372;-64
2023/08/18 11:29:11;;;;;;;32.40;29.08;;;;;;;;;;5076493;28;20446;-64
2023/08/18 11:31:37;;;;;;;34.03;29.10;;;;;;;;;;5084832;28;20054;-65
2023/08/18 11:34:02;;;;;;;31.13;27.83;;;;;;;;;;5078968;28;20029;-64
2023/08/18 11:36:31;;;;;;;28.45;25.58;;;;;;;;;;5079468;28;20274;-64
2023/08/18 11:39:08;;;;;;;28.38;25.58;;;;;;;;;;5079494;28;20062;-64
2023/08/18 11:41:41;;;;;;;29.95;27.00;;;;;;;;;;5079601;28;20032;-64
2023/08/18 11:44:07;;;;;;;30.75;27.75;;;;;;;;;;5070544;28;20067;-64
2023/08/18 11:46:36;;;;;;;29.42;26.25;;;;;;;;;;5084270;28;20397;-64
2023/08/18 11:49:03;;;;;;;26.27;23.73;;;;;;;;;;5080870;28;21279;-64
2023/08/18 11:51:29;;;;;;;28.35;24.92;;;;;;;;;;5088841;28;20086;-64
2023/08/18 11:53:54;;;;;;;28.33;25.73;;;;;;;;;;5081056;28;20020;-64
2023/08/18 11:56:19;;;;;;;24.73;22.43;;;;;;;;;;5077197;28;20095;-64
2023/08/18 11:58:45;;;;;;;27.50;24.50;;;;;;;;;;5072918;28;20297;-64
2023/08/18 12:01:11;;;;;;;22.73;20.63;;;;;;;;;;5076285;28;20013;-64
2023/08/18 12:03:36;;;;;;;23.50;21.08;;;;;;;;;;5073103;28;20473;-65
2023/08/18 12:06:02;;;;;;;24.23;21.73;;;;;;;;;;5060083;28;20025;-65
2023/08/18 12:08:28;;;;;;;23.73;21.15;;;;;;;;;;5079829;28;20505;-64
2023/08/18 12:10:54;;;;;;;22.45;20.35;;;;;;;;;;5075883;28;20016;-64
2023/08/18 12:13:19;;;;;;;20.88;18.85;;;;;;;;;;5034860;28;20074;-64
2023/08/18 12:15:45;;;;;;;21.55;19.33;;;;;;;;;;5034514;28;20915;-65
2023/08/18 12:18:10;;;;;;;21.83;19.52;;;;;;;;;;5037914;28;20602;-63
2023/08/18 12:20:36;;;;;;;21.57;18.73;;;;;;;;;;5073159;28;20024;-65
2023/08/18 12:23:03;;;;;;;21.83;19.52;;;;;;;;;;5083040;28;20097;-64
2023/08/18 12:25:28;;;;;;;21.38;18.85;;;;;;;;;;5042695;28;20084;-64
2023/08/18 12:27:54;;;;;;;23.45;18.17;;;;;;;;;;5040694;28;20931;-64
2023/08/18 12:30:19;;;;;;;19.17;17.43;;;;;;;;;;5042636;28;20127;-64
2023/08/18 12:32:46;;;;;;;18.17;16.48;;;;;;;;;;5039732;28;20139;-64
2023/08/18 12:35:11;;;;;;;22.73;18.08;;;;;;;;;;5045569;28;20084;-64
2023/08/18 12:37:37;;;;;;;18.73;16.83;;;;;;;;;;5039456;28;20017;-65
2023/08/18 12:40:05;;;;;;;20.00;18.10;;;;;;;;;;5042324;28;20034;-64
2023/08/18 12:42:31;;;;;;;18.02;16.25;;;;;;;;;;5024113;28;20810;-65
2023/08/18 12:44:56;;;;;;;19.48;17.40;;;;;;;;;;5028896;28;20036;-64
2023/08/18 12:47:21;;;;;;;17.77;15.87;;;;;;;;;;5047743;28;20097;-65
2023/08/18 12:49:47;;;;;;;18.30;16.45;;;;;;;;;;5054529;28;20041;-65
2023/08/18 12:52:13;;;;;;;19.55;16.50;;;;;;;;;;5053944;28;20146;-65
2023/08/18 12:54:38;;;;;;;20.20;18.27;;;;;;;;;;5034813;28;20020;-65
2023/08/18 12:57:03;;;;;;;21.47;18.87;;;;;;;;;;5054599;28;20035;-65
2023/08/18 12:59:29;;;;;;;22.07;19.73;;;;;;;;;;5036063;28;20035;-65
2023/08/18 13:01:54;;;;;;;21.33;19.17;;;;;;;;;;5042536;28;21071;-65
2023/08/18 13:04:19;;;;;;;21.00;19.00;;;;;;;;;;5043896;28;20032;-65
2023/08/18 13:06:44;;;;;;;22.07;19.53;;;;;;;;;;5048064;28;20784;-65
2023/08/18 13:09:10;;;;;;;25.25;22.65;;;;;;;;;;5080458;28;20357;-64
2023/08/18 13:11:36;;;;;;;22.77;20.67;;;;;;;;;;5075528;28;20038;-65
2023/08/18 13:14:01;;;;;;;22.00;19.88;;;;;;;;;;5084067;28;20032;-64
2023/08/18 13:16:27;;;;;;;25.27;22.73;;;;;;;;;;5081932;28;20174;-64
2023/08/18 13:18:53;;;;;;;24.30;21.85;;;;;;;;;;5076581;28;20039;-64
2023/08/18 13:21:18;;;;;;;25.13;22.90;;;;;;;;;;5082759;28;20035;-64
2023/08/18 13:23:43;;;;;;;24.30;22.00;;;;;;;;;;5070532;28;20028;-63
2023/08/18 13:26:08;;;;;;;23.58;21.45;;;;;;;;;;5079175;28;20103;-64
2023/08/18 13:28:40;;;;;;;25.77;23.17;;;;;;;;;;5087174;28;20100;-64
2023/08/18 13:31:14;;;;;;;27.40;24.92;;;;;;;;;;5081939;28;20455;-65
2023/08/18 13:33:41;;;;;;;27.33;24.65;;;;;;;;;;5092034;28;20042;-64
2023/08/18 13:36:07;;;;;;;26.63;23.88;;;;;;;;;;5084456;28;20127;-64
2023/08/18 13:38:32;;;;;;;24.15;21.60;;;;;;;;;;5084731;28;20096;-65
2023/08/18 13:40:57;;;;;;;25.90;23.50;;;;;;;;;;5088669;28;20359;-65
2023/08/18 13:43:22;;;;;;;27.87;22.83;;;;;;;;;;5081914;28;20271;-64
2023/08/18 13:45:48;;;;;;;24.43;21.93;;;;;;;;;;5084667;28;20040;-64
2023/08/18 13:48:13;;;;;;;21.23;19.10;;;;;;;;;;5091538;28;20027;-64
2023/08/18 13:50:38;;;;;;;23.47;21.20;;;;;;;;;;5092424;28;20110;-64
2023/08/18 13:53:04;;;;;;;20.65;18.65;;;;;;;;;;5090542;28;20509;-64
2023/08/18 13:55:29;;;;;;;23.20;20.92;;;;;;;;;;5085329;28;20020;-64
2023/08/18 13:57:54;;;;;;;22.13;19.83;;;;;;;;;;5077395;28;20020;-65
2023/08/18 14:00:20;;;;;;;22.60;20.33;;;;;;;;;;5080594;28;20462;-64
2023/08/18 14:02:45;;;;;;;20.17;18.37;;;;;;;;;;5077354;28;20016;-65
2023/08/18 14:05:11;;;;;;;23.10;20.17;;;;;;;;;;5080511;28;20024;-65